Abeytas, New Mexico
Current Conditions -  °F | °C
As of 6:35 AM on Tuesday 21 Oct 2014 (Local Time) from KONM Reporting Station
Scattered Clouds Scattered Clouds  
Wind Chill: 46°   Ceiling: Unl
Heat Index: 49°   Visibility: 10mi
Dew Point: 47°   Wind: 6mph
Humidity: 95%   Direction: 320°NW
Pressure: 30.14"   Gusts: NA
Location:  34.4828°N, 106.804°W
Report Text: KONM 211235Z AUTO 32005KT 10SM SCT075 09/08 A3014 RMK AO2 T00920084
Loading
Personal Weather Stations






























Interactive Weather Map New forecast layout! Learn more

10-Day Weather Forecast

Advertisements
Track Severe Weather on mobile